Carson City Airport

KCXP · 内华达州, 美国

罗盘
风向 的 Carson City Airport 9/27
风: 0 kt, 0 beaufort


改变
0 ft 1.000 2.000 3.000 4.000 5.000
没有云
METAR KCXP 201155Z AUTO 00000KT 10SM CLR 10/01 A3001 RMK AO2

METAR Carson City Airport - KCXP/CSN

Carson City Airport是,美国中的中型机场。 该机场位于纬度39,19230和经度-119,73257。 该机场有一条跑道: 9/27. 本场的ICAO机场代码为KCXP。 该机场的本地机场标识(FAA LID)为CXP。 该机场的IATA代码为CSN。 机场在Oakland FIR中。

该航空气象观测是针对Carson City Airport在2024年6月20日 04:55, 当地时间进行的。

机场观察

可变方向的风很小或没有风。

可见度为10 mi。

有没有云。 没有观察到天花板。

温度和风寒是10 °C。 露点为1 °C,相对湿度为54%。 海平面上的气压为30,01 inHg (QNH)。

白天

今天,太阳从05:32升起,在20:28降落。 这适用于Carson City Airport,世界夏令时可能有所不同。 当地时间与世界标准时间之间的时差为-7 小时。 夏令时目前正在进行中。

公司介绍

在这个机场,你可以找到飞行学校。 本场上唯一已知的公司是Carson Aviation Adventures。

体会

到Vliegles.nl去找飞行课程,跳伞和其他飞行体验。 浏览页面,了解Carson City Airport附近所有可用的活动。 你也可以使用搜索功能来寻找你所在地附近的特定飞行课程、跳伞或其他飞行体验。

跑道

Id 标题 侧风 逆风 侧风 %
9/27 103°-283°

逆风成分最大的方向会被突出显示,并用于横风计算。 这并不一定意味着这个方向在使用。

乌云

- CLR 没有云

温度 & 天气

温度 10 °C
露点 1 °C
相对湿度 54%
Kp-index 0 (0-9)

评论

AO2自动气象站,可确定降水类型

白天

日出
05:32 (23m)
中午
13:00
日落
20:28

小工具

你想在你的网站上有一个关于Carson City Airport的当前航空天气(METAR)的小部件吗?

显示HTML代码
报告变更